createdAt,value
2018-11-11T00:00:02.000Z,99161
2018-11-11T00:02:02.000Z,99157
2018-11-11T00:04:02.000Z,99158
2018-11-11T00:05:47.000Z,99168
2018-11-11T00:07:02.000Z,99167
2018-11-11T00:08:02.000Z,99172
2018-11-11T00:09:47.000Z,99161
2018-11-11T00:11:02.000Z,99170
2018-11-11T00:13:02.000Z,99162
2018-11-11T00:15:02.000Z,99167
2018-11-11T00:16:02.000Z,99167
2018-11-11T00:18:02.000Z,99155
2018-11-11T00:19:02.000Z,99156
2018-11-11T00:21:02.000Z,99161
2018-11-11T00:23:02.000Z,99163
2018-11-11T00:24:02.000Z,99170
2018-11-11T00:26:02.000Z,99168
2018-11-11T00:27:02.000Z,99161
2018-11-11T00:29:02.000Z,99163
2018-11-11T00:30:47.000Z,99166
2018-11-11T00:32:02.000Z,99174
2018-11-11T00:34:02.000Z,99159
2018-11-11T00:35:02.000Z,99160
2018-11-11T00:37:02.000Z,99170
2018-11-11T00:39:02.000Z,99168
2018-11-11T00:40:02.000Z,99167
2018-11-11T00:41:02.000Z,99170
2018-11-11T00:43:02.000Z,99172
2018-11-11T00:44:02.000Z,99170
2018-11-11T00:45:02.000Z,99166
2018-11-11T00:46:47.000Z,99160
2018-11-11T00:48:02.000Z,99165
2018-11-11T00:50:02.000Z,99153
2018-11-11T00:51:47.000Z,99157
2018-11-11T00:53:02.000Z,99149
2018-11-11T00:54:02.000Z,99153
2018-11-11T00:56:02.000Z,99151
2018-11-11T00:58:02.000Z,99154
2018-11-11T01:00:02.000Z,99152
2018-11-11T01:02:02.000Z,99154
2018-11-11T01:04:02.000Z,99155
2018-11-11T01:06:02.000Z,99171
2018-11-11T01:07:47.000Z,99156
2018-11-11T01:09:02.000Z,99151
2018-11-11T01:10:02.000Z,99158
2018-11-11T01:11:47.000Z,99152
2018-11-11T01:13:02.000Z,99157
2018-11-11T01:15:02.000Z,99172
2018-11-11T01:16:02.000Z,99175
2018-11-11T01:18:02.000Z,99183
2018-11-11T01:20:02.000Z,99182
2018-11-11T01:21:47.000Z,99189
2018-11-11T01:23:02.000Z,99198
2018-11-11T01:25:02.000Z,99196
2018-11-11T01:26:02.000Z,99198
2018-11-11T01:28:02.000Z,99200
2018-11-11T01:29:02.000Z,99202
2018-11-11T01:31:02.000Z,99201
2018-11-11T01:33:02.000Z,99198
2018-11-11T01:35:02.000Z,99202
2018-11-11T01:37:02.000Z,99200
2018-11-11T01:38:02.000Z,99205
2018-11-11T01:40:02.000Z,99206
2018-11-11T01:42:02.000Z,99218
2018-11-11T01:43:02.000Z,99217
2018-11-11T01:45:02.000Z,99213
2018-11-11T01:47:02.000Z,99215
2018-11-11T01:49:02.000Z,99217
2018-11-11T01:51:02.000Z,99211
2018-11-11T01:53:02.000Z,99214
2018-11-11T01:54:02.000Z,99205
2018-11-11T01:56:02.000Z,99208
2018-11-11T01:57:02.000Z,99203
2018-11-11T01:59:02.000Z,99201
2018-11-11T02:01:02.000Z,99205
2018-11-11T02:02:02.000Z,99200
2018-11-11T02:03:02.000Z,99199
2018-11-11T02:05:02.000Z,99198
2018-11-11T02:07:02.000Z,99189
2018-11-11T02:09:02.000Z,99193
2018-11-11T02:10:02.000Z,99184
2018-11-11T02:12:02.000Z,99186
2018-11-11T02:13:02.000Z,99188
2018-11-11T02:14:02.000Z,99189
2018-11-11T02:15:47.000Z,99190
2018-11-11T02:17:02.000Z,99192
2018-11-11T02:18:02.000Z,99191
2018-11-11T02:20:02.000Z,99183
2018-11-11T02:21:02.000Z,99188
2018-11-11T02:23:02.000Z,99190
2018-11-11T02:25:02.000Z,99195
2018-11-11T02:27:02.000Z,99202
2018-11-11T02:28:47.000Z,99196
2018-11-11T02:30:02.000Z,99197
2018-11-11T02:31:02.000Z,99199
2018-11-11T02:33:02.000Z,99196
2018-11-11T02:35:02.000Z,99196
2018-11-11T02:36:02.000Z,99196
2018-11-11T02:37:02.000Z,99192
2018-11-11T02:38:02.000Z,99188
2018-11-11T02:40:02.000Z,99195
2018-11-11T02:41:02.000Z,99188
2018-11-11T02:42:02.000Z,99184
2018-11-11T02:44:02.000Z,99181
2018-11-11T02:45:47.000Z,99179
2018-11-11T02:47:02.000Z,99178
2018-11-11T02:49:02.000Z,99173
2018-11-11T02:51:02.000Z,99171
2018-11-11T02:52:47.000Z,99178
2018-11-11T02:54:02.000Z,99181
2018-11-11T02:56:02.000Z,99182
2018-11-11T02:58:02.000Z,99185
2018-11-11T02:59:02.000Z,99184
2018-11-11T03:01:02.000Z,99191
2018-11-11T03:02:47.000Z,99185
2018-11-11T03:04:02.000Z,99187
2018-11-11T03:06:02.000Z,99181
2018-11-11T03:08:02.000Z,99180
2018-11-11T03:10:02.000Z,99181
2018-11-11T03:12:02.000Z,99182
2018-11-11T03:14:02.000Z,99178
2018-11-11T03:15:02.000Z,99176
2018-11-11T03:17:02.000Z,99172
2018-11-11T03:18:02.000Z,99177
2018-11-11T03:19:02.000Z,99180
2018-11-11T03:21:02.000Z,99176
2018-11-11T03:23:02.000Z,99184
2018-11-11T03:25:02.000Z,99186
2018-11-11T03:27:02.000Z,99185
2018-11-11T03:29:02.000Z,99188
2018-11-11T03:31:02.000Z,99179
2018-11-11T03:33:02.000Z,99190
2018-11-11T03:35:02.000Z,99181
2018-11-11T03:37:02.000Z,99180
2018-11-11T03:39:02.000Z,99175
2018-11-11T03:41:02.000Z,99179
2018-11-11T03:42:47.000Z,99176
2018-11-11T03:44:02.000Z,99174
2018-11-11T03:45:02.000Z,99179
2018-11-11T03:47:02.000Z,99176
2018-11-11T03:49:02.000Z,99184
2018-11-11T03:50:02.000Z,99183
2018-11-11T03:51:47.000Z,99185
2018-11-11T03:53:02.000Z,99189
2018-11-11T03:54:31.000Z,99184
2018-11-11T03:56:02.000Z,99185
2018-11-11T03:57:02.000Z,99186
2018-11-11T03:59:02.000Z,99189
2018-11-11T04:01:02.000Z,99186
2018-11-11T04:03:02.000Z,99193
2018-11-11T04:04:47.000Z,99196
2018-11-11T04:06:02.000Z,99192
2018-11-11T04:07:02.000Z,99188
2018-11-11T04:09:02.000Z,99190
2018-11-11T04:10:02.000Z,99199
2018-11-11T04:11:02.000Z,99192
2018-11-11T04:13:02.000Z,99192
2018-11-11T04:14:02.000Z,99185
2018-11-11T04:16:02.000Z,99188
2018-11-11T04:17:02.000Z,99192
2018-11-11T04:19:02.000Z,99182
2018-11-11T04:21:02.000Z,99171
2018-11-11T04:22:02.000Z,99169
2018-11-11T04:23:47.000Z,99174
2018-11-11T04:25:02.000Z,99175
2018-11-11T04:27:02.000Z,99177
2018-11-11T04:29:02.000Z,99187
2018-11-11T04:31:02.000Z,99184
2018-11-11T04:33:02.000Z,99198
2018-11-11T04:34:02.000Z,99202
2018-11-11T04:35:02.000Z,99201
2018-11-11T04:37:02.000Z,99200
2018-11-11T04:39:02.000Z,99192
2018-11-11T04:40:47.000Z,99195
2018-11-11T04:42:02.000Z,99194
2018-11-11T04:44:02.000Z,99193
2018-11-11T04:46:02.000Z,99193
2018-11-11T04:47:02.000Z,99197
2018-11-11T04:49:02.000Z,99204
2018-11-11T04:50:02.000Z,99197
2018-11-11T04:52:02.000Z,99206
2018-11-11T04:53:02.000Z,99197
2018-11-11T04:55:02.000Z,99200
2018-11-11T04:56:02.000Z,99200
2018-11-11T04:57:47.000Z,99193
2018-11-11T04:59:02.000Z,99200
2018-11-11T05:00:02.000Z,99197
2018-11-11T05:02:02.000Z,99197
2018-11-11T05:03:02.000Z,99194
2018-11-11T05:05:02.000Z,99203
2018-11-11T05:07:02.000Z,99191
2018-11-11T05:09:02.000Z,99193
2018-11-11T05:11:02.000Z,99192
2018-11-11T05:13:02.000Z,99189
2018-11-11T05:15:02.000Z,99190
2018-11-11T05:16:47.000Z,99193
2018-11-11T05:18:02.000Z,99190
2018-11-11T05:19:02.000Z,99189
2018-11-11T05:20:02.000Z,99193
2018-11-11T05:22:02.000Z,99198
2018-11-11T05:23:02.000Z,99196
2018-11-11T05:25:02.000Z,99202
2018-11-11T05:26:02.000Z,99210
2018-11-11T05:28:02.000Z,99207
2018-11-11T05:30:02.000Z,99200
2018-11-11T05:32:02.000Z,99206
2018-11-11T05:34:02.000Z,99225
2018-11-11T05:35:02.000Z,99211
2018-11-11T05:37:02.000Z,99211
2018-11-11T05:39:02.000Z,99216
2018-11-11T05:41:02.000Z,99213
2018-11-11T05:42:02.000Z,99213
2018-11-11T05:44:02.000Z,99211
2018-11-11T05:46:02.000Z,99207
2018-11-11T05:47:02.000Z,99211
2018-11-11T05:49:02.000Z,99216
2018-11-11T05:51:02.000Z,99220
2018-11-11T05:53:02.000Z,99223
2018-11-11T05:55:02.000Z,99208
2018-11-11T05:56:02.000Z,99218
2018-11-11T05:58:02.000Z,99215
2018-11-11T05:59:02.000Z,99219
2018-11-11T06:00:02.000Z,99217
2018-11-11T06:01:47.000Z,99220
2018-11-11T06:03:02.000Z,99218
2018-11-11T06:04:02.000Z,99224
2018-11-11T06:06:02.000Z,99222
2018-11-11T06:07:02.000Z,99217
2018-11-11T06:08:02.000Z,99223
2018-11-11T06:10:02.000Z,99216
2018-11-11T06:11:46.000Z,99221
2018-11-11T06:13:02.000Z,99222
2018-11-11T06:14:02.000Z,99225
2018-11-11T06:16:02.000Z,99227
2018-11-11T06:17:02.000Z,99226
2018-11-11T06:19:02.000Z,99226
2018-11-11T06:20:47.000Z,99228
2018-11-11T06:22:02.000Z,99229
2018-11-11T06:24:02.000Z,99227
2018-11-11T06:26:02.000Z,99226
2018-11-11T06:27:02.000Z,99233
2018-11-11T06:29:02.000Z,99234
2018-11-11T06:30:02.000Z,99222
2018-11-11T06:32:02.000Z,99232
2018-11-11T06:34:02.000Z,99247
2018-11-11T06:36:02.000Z,99241
2018-11-11T06:37:47.000Z,99251
2018-11-11T06:39:02.000Z,99245
2018-11-11T06:40:02.000Z,99249
2018-11-11T06:42:02.000Z,99246
2018-11-11T06:43:02.000Z,99251
2018-11-11T06:44:47.000Z,99248
2018-11-11T06:46:02.000Z,99236
2018-11-11T06:48:02.000Z,99248
2018-11-11T06:49:02.000Z,99245
2018-11-11T06:51:02.000Z,99247
2018-11-11T06:53:02.000Z,99241
2018-11-11T06:55:02.000Z,99238
2018-11-11T06:57:02.000Z,99241
2018-11-11T06:58:02.000Z,99238
2018-11-11T07:00:02.000Z,99242
2018-11-11T07:01:02.000Z,99239
2018-11-11T07:02:47.000Z,99229
2018-11-11T07:04:02.000Z,99239
2018-11-11T07:05:02.000Z,99238
2018-11-11T07:07:02.000Z,99238
2018-11-11T07:09:02.000Z,99253
2018-11-11T07:10:02.000Z,99238
2018-11-11T07:12:02.000Z,99245
2018-11-11T07:14:02.000Z,99239
2018-11-11T07:16:02.000Z,99246
2018-11-11T07:17:02.000Z,99246
2018-11-11T07:18:31.000Z,99241
2018-11-11T07:20:02.000Z,99242
2018-11-11T07:22:02.000Z,99250
2018-11-11T07:24:02.000Z,99255
2018-11-11T07:25:47.000Z,99263
2018-11-11T07:27:02.000Z,99265
2018-11-11T07:29:02.000Z,99264
2018-11-11T07:31:02.000Z,99270
2018-11-11T07:33:02.000Z,99280
2018-11-11T07:34:02.000Z,99285
2018-11-11T07:36:02.000Z,99280
2018-11-11T07:37:02.000Z,99280
2018-11-11T07:38:47.000Z,99274
2018-11-11T07:40:02.000Z,99273
2018-11-11T07:41:02.000Z,99273
2018-11-11T07:43:02.000Z,99277
2018-11-11T07:45:02.000Z,99287
2018-11-11T07:47:02.000Z,99294
2018-11-11T07:48:02.000Z,99292
2018-11-11T07:49:02.000Z,99297
2018-11-11T07:51:02.000Z,99291
2018-11-11T07:53:02.000Z,99291
2018-11-11T07:54:47.000Z,99307
2018-11-11T07:56:02.000Z,99304
2018-11-11T07:58:02.000Z,99306
2018-11-11T08:00:02.000Z,99306
2018-11-11T08:02:02.000Z,99312
2018-11-11T08:03:02.000Z,99315
2018-11-11T08:05:02.000Z,99313
2018-11-11T08:06:02.000Z,99321
2018-11-11T08:07:47.000Z,99327
2018-11-11T08:09:02.000Z,99329
2018-11-11T08:10:02.000Z,99330
2018-11-11T08:12:02.000Z,99335
2018-11-11T08:14:02.000Z,99342
2018-11-11T08:16:02.000Z,99336
2018-11-11T08:17:47.000Z,99329
2018-11-11T08:19:02.000Z,99338
2018-11-11T08:21:02.000Z,99353
2018-11-11T08:23:02.000Z,99343
2018-11-11T08:24:02.000Z,99350
2018-11-11T08:25:02.000Z,99354
2018-11-11T08:27:02.000Z,99340
2018-11-11T08:29:02.000Z,99333
2018-11-11T08:30:02.000Z,99335
2018-11-11T08:32:02.000Z,99330
2018-11-11T08:33:47.000Z,99339
2018-11-11T08:35:02.000Z,99339
2018-11-11T08:36:02.000Z,99337
2018-11-11T08:37:02.000Z,99336
2018-11-11T08:38:47.000Z,99336
2018-11-11T08:40:02.000Z,99340
2018-11-11T08:42:02.000Z,99337
2018-11-11T08:43:02.000Z,99334
2018-11-11T08:45:02.000Z,99340
2018-11-11T08:47:02.000Z,99341
2018-11-11T08:48:02.000Z,99348
2018-11-11T08:49:02.000Z,99345
2018-11-11T08:50:32.000Z,99347
2018-11-11T08:52:02.000Z,99342
2018-11-11T08:54:02.000Z,99351
2018-11-11T08:56:02.000Z,99355
2018-11-11T08:57:02.000Z,99349
2018-11-11T08:58:02.000Z,99357
2018-11-11T09:00:02.000Z,99361
2018-11-11T09:01:32.000Z,99358
2018-11-11T09:03:02.000Z,99367
2018-11-11T09:05:02.000Z,99363
2018-11-11T09:06:02.000Z,99366
2018-11-11T09:08:02.000Z,99374
2018-11-11T09:10:02.000Z,99376
2018-11-11T09:12:02.000Z,99375
2018-11-11T09:13:02.000Z,99368
2018-11-11T09:15:02.000Z,99385
2018-11-11T09:17:02.000Z,99376
2018-11-11T09:19:02.000Z,99383
2018-11-11T09:20:47.000Z,99386
2018-11-11T09:23:02.000Z,99383
2018-11-11T09:24:02.000Z,99387
2018-11-11T09:26:02.000Z,99372
2018-11-11T09:28:02.000Z,99377
2018-11-11T09:30:02.000Z,99372
2018-11-11T09:31:02.000Z,99379
2018-11-11T09:33:02.000Z,99387
2018-11-11T09:34:02.000Z,99395
2018-11-11T09:36:02.000Z,99396
2018-11-11T09:38:02.000Z,99393
2018-11-11T09:40:02.000Z,99387
2018-11-11T09:42:02.000Z,99391
2018-11-11T09:43:02.000Z,99382
2018-11-11T09:45:02.000Z,99393
2018-11-11T09:46:02.000Z,99398
2018-11-11T09:48:02.000Z,99404
2018-11-11T09:50:02.000Z,99397
2018-11-11T09:52:02.000Z,99382
2018-11-11T09:53:02.000Z,99392
2018-11-11T09:55:02.000Z,99386
2018-11-11T09:56:02.000Z,99387
2018-11-11T09:58:02.000Z,99373
2018-11-11T09:59:02.000Z,99370
2018-11-11T10:01:02.000Z,99376
2018-11-11T10:03:02.000Z,99368
2018-11-11T10:04:02.000Z,99374
2018-11-11T10:05:02.000Z,99381
2018-11-11T10:07:02.000Z,99382
2018-11-11T10:09:02.000Z,99380
2018-11-11T10:10:47.000Z,99380
2018-11-11T10:12:02.000Z,99381
2018-11-11T10:14:02.000Z,99387
2018-11-11T10:15:02.000Z,99389
2018-11-11T10:17:02.000Z,99388
2018-11-11T10:19:02.000Z,99401
2018-11-11T10:21:02.000Z,99390
2018-11-11T10:23:02.000Z,99386
2018-11-11T10:24:02.000Z,99383
2018-11-11T10:25:02.000Z,99390
2018-11-11T10:26:47.000Z,99387
2018-11-11T10:28:02.000Z,99388
2018-11-11T10:29:02.000Z,99379
2018-11-11T10:31:02.000Z,99384
2018-11-11T10:33:02.000Z,99385
2018-11-11T10:34:02.000Z,99393
2018-11-11T10:36:02.000Z,99396
2018-11-11T10:38:02.000Z,99390
2018-11-11T10:39:02.000Z,99388
2018-11-11T10:40:02.000Z,99381
2018-11-11T10:41:02.000Z,99378
2018-11-11T10:43:02.000Z,99390
2018-11-11T10:44:47.000Z,99390
2018-11-11T10:46:02.000Z,99399
2018-11-11T10:47:02.000Z,99400
2018-11-11T10:49:02.000Z,99387
2018-11-11T10:50:02.000Z,99392
2018-11-11T10:52:02.000Z,99399
2018-11-11T10:53:02.000Z,99392
2018-11-11T10:55:02.000Z,99401
2018-11-11T10:57:02.000Z,99407
2018-11-11T10:58:02.000Z,99417
2018-11-11T11:00:02.000Z,99428
2018-11-11T11:02:02.000Z,99430
2018-11-11T11:04:02.000Z,99427
2018-11-11T11:06:02.000Z,99425
2018-11-11T11:08:02.000Z,99439
2018-11-11T11:09:02.000Z,99435
2018-11-11T11:10:32.000Z,99442
2018-11-11T11:12:02.000Z,99445
2018-11-11T11:14:02.000Z,99439
2018-11-11T11:16:02.000Z,99456
2018-11-11T11:18:02.000Z,99455
2018-11-11T11:20:02.000Z,99456
2018-11-11T11:22:02.000Z,99463
2018-11-11T11:24:02.000Z,99451
2018-11-11T11:25:47.000Z,99457
2018-11-11T11:27:02.000Z,99459
2018-11-11T11:29:02.000Z,99458
2018-11-11T11:31:02.000Z,99450
2018-11-11T11:33:02.000Z,99467
2018-11-11T11:35:02.000Z,99468
2018-11-11T11:37:02.000Z,99473
2018-11-11T11:38:47.000Z,99473
2018-11-11T11:40:02.000Z,99474
2018-11-11T11:42:02.000Z,99489
2018-11-11T11:44:02.000Z,99483
2018-11-11T11:45:02.000Z,99483
2018-11-11T11:47:02.000Z,99489
2018-11-11T11:48:02.000Z,99488
2018-11-11T11:50:02.000Z,99490
2018-11-11T11:51:02.000Z,99492
2018-11-11T11:53:02.000Z,99491
2018-11-11T11:55:02.000Z,99492
2018-11-11T11:56:32.000Z,99495
2018-11-11T11:58:02.000Z,99493
2018-11-11T12:00:02.000Z,99489
2018-11-11T12:01:02.000Z,99479
2018-11-11T12:02:47.000Z,99485
2018-11-11T12:04:02.000Z,99479
2018-11-11T12:05:02.000Z,99485
2018-11-11T12:07:02.000Z,99476
2018-11-11T12:08:02.000Z,99485
2018-11-11T12:09:02.000Z,99487
2018-11-11T12:11:02.000Z,99480
2018-11-11T12:13:02.000Z,99481
2018-11-11T12:14:47.000Z,99481
2018-11-11T12:16:02.000Z,99485
2018-11-11T12:17:02.000Z,99483
2018-11-11T12:19:02.000Z,99479
2018-11-11T12:20:02.000Z,99480
2018-11-11T12:22:02.000Z,99483
2018-11-11T12:24:02.000Z,99470
2018-11-11T12:25:02.000Z,99470
2018-11-11T12:26:47.000Z,99478
2018-11-11T12:28:02.000Z,99474
2018-11-11T12:29:02.000Z,99474
2018-11-11T12:30:02.000Z,99475
2018-11-11T12:32:02.000Z,99473
2018-11-11T12:34:02.000Z,99478
2018-11-11T12:36:02.000Z,99473
2018-11-11T12:37:02.000Z,99469
2018-11-11T12:39:02.000Z,99485
2018-11-11T12:41:02.000Z,99490
2018-11-11T12:43:02.000Z,99489
2018-11-11T12:44:02.000Z,99496
2018-11-11T12:46:02.000Z,99488
2018-11-11T12:47:02.000Z,99491
2018-11-11T12:49:02.000Z,99495
2018-11-11T12:50:02.000Z,99495
2018-11-11T12:52:02.000Z,99488
2018-11-11T12:54:02.000Z,99486
2018-11-11T12:56:02.000Z,99488
2018-11-11T12:58:02.000Z,99506
2018-11-11T13:00:02.000Z,99495
2018-11-11T13:01:03.000Z,99489
2018-11-11T13:03:02.000Z,99498
2018-11-11T13:04:03.000Z,99493
2018-11-11T13:05:03.000Z,99495
2018-11-11T13:07:02.000Z,99499
2018-11-11T13:08:02.000Z,99496
2018-11-11T13:09:03.000Z,99501
2018-11-11T13:11:02.000Z,99502
2018-11-11T13:12:02.000Z,99497
2018-11-11T13:13:03.000Z,99499
2018-11-11T13:15:02.000Z,99499
2018-11-11T13:17:02.000Z,99502
2018-11-11T13:19:03.000Z,99500
2018-11-11T13:20:03.000Z,99501
2018-11-11T13:21:03.000Z,99503
2018-11-11T13:22:03.000Z,99504
2018-11-11T13:24:02.000Z,99508
2018-11-11T13:25:03.000Z,99514
2018-11-11T13:27:03.000Z,99517
2018-11-11T13:29:03.000Z,99514
2018-11-11T13:31:02.000Z,99517
2018-11-11T13:33:03.000Z,99519
2018-11-11T13:34:03.000Z,99516
2018-11-11T13:35:03.000Z,99522
2018-11-11T13:37:02.000Z,99524
2018-11-11T13:38:03.000Z,99521
2018-11-11T13:40:02.000Z,99521
2018-11-11T13:41:03.000Z,99523
2018-11-11T13:43:03.000Z,99522
2018-11-11T13:45:03.000Z,99524
2018-11-11T13:46:03.000Z,99522
2018-11-11T13:48:03.000Z,99522
2018-11-11T13:50:03.000Z,99524
2018-11-11T13:51:03.000Z,99523
2018-11-11T13:53:03.000Z,99528
2018-11-11T13:55:03.000Z,99529
2018-11-11T13:56:03.000Z,99525
2018-11-11T13:58:03.000Z,99527
2018-11-11T13:59:03.000Z,99536
2018-11-11T14:00:47.000Z,99532
2018-11-11T14:02:03.000Z,99535
2018-11-11T14:04:02.000Z,99544
2018-11-11T14:06:02.000Z,99540
2018-11-11T14:07:02.000Z,99539
2018-11-11T14:09:02.000Z,99544
2018-11-11T14:10:47.000Z,99543
2018-11-11T14:12:02.000Z,99540
2018-11-11T14:14:02.000Z,99547
2018-11-11T14:16:02.000Z,99552
2018-11-11T14:17:47.000Z,99542
2018-11-11T14:19:02.000Z,99541
2018-11-11T14:20:02.000Z,99534
2018-11-11T14:22:02.000Z,99523
2018-11-11T14:24:02.000Z,99518
2018-11-11T14:26:02.000Z,99518
2018-11-11T14:28:02.000Z,99521
2018-11-11T14:29:02.000Z,99528
2018-11-11T14:31:02.000Z,99538
2018-11-11T14:32:02.000Z,99540
2018-11-11T14:34:02.000Z,99541
2018-11-11T14:36:02.000Z,99540
2018-11-11T14:38:02.000Z,99541
2018-11-11T14:39:02.000Z,99540
2018-11-11T14:41:02.000Z,99541
2018-11-11T14:43:02.000Z,99542
2018-11-11T14:45:02.000Z,99542
2018-11-11T14:47:02.000Z,99558
2018-11-11T14:49:02.000Z,99570
2018-11-11T14:50:02.000Z,99572
2018-11-11T14:52:02.000Z,99568
2018-11-11T14:53:02.000Z,99576
2018-11-11T14:55:02.000Z,99586
2018-11-11T14:57:02.000Z,99598
2018-11-11T14:58:47.000Z,99599
2018-11-11T15:00:02.000Z,99607
2018-11-11T15:01:47.000Z,99607
2018-11-11T15:03:02.000Z,99608
2018-11-11T15:05:02.000Z,99602
2018-11-11T15:07:03.000Z,99605
2018-11-11T15:09:03.000Z,99603
2018-11-11T15:10:03.000Z,99600
2018-11-11T15:12:03.000Z,99600
2018-11-11T15:13:03.000Z,99607
2018-11-11T15:14:03.000Z,99608
2018-11-11T15:16:03.000Z,99608
2018-11-11T15:18:03.000Z,99603
2018-11-11T15:19:03.000Z,99597
2018-11-11T15:21:03.000Z,99586
2018-11-11T15:23:03.000Z,99597
2018-11-11T15:24:03.000Z,99600
2018-11-11T15:25:03.000Z,99594
2018-11-11T15:27:03.000Z,99589
2018-11-11T15:29:02.000Z,99581
2018-11-11T15:31:03.000Z,99587
2018-11-11T15:32:03.000Z,99579
2018-11-11T15:34:03.000Z,99581
2018-11-11T15:36:03.000Z,99588
2018-11-11T15:38:03.000Z,99594
2018-11-11T15:39:03.000Z,99594
2018-11-11T15:41:03.000Z,99596
2018-11-11T15:43:03.000Z,99595
2018-11-11T15:45:03.000Z,99597
2018-11-11T15:47:03.000Z,99597
2018-11-11T15:49:03.000Z,99597
2018-11-11T15:51:03.000Z,99599
2018-11-11T15:52:47.000Z,99598
2018-11-11T15:54:03.000Z,99595
2018-11-11T15:55:03.000Z,99599
2018-11-11T15:57:03.000Z,99606
2018-11-11T15:58:47.000Z,99608
2018-11-11T16:00:03.000Z,99597
2018-11-11T16:01:03.000Z,99601
2018-11-11T16:02:03.000Z,99601
2018-11-11T16:03:03.000Z,99605
2018-11-11T16:04:47.000Z,99604
2018-11-11T16:06:03.000Z,99607
2018-11-11T16:08:03.000Z,99606
2018-11-11T16:09:03.000Z,99603
2018-11-11T16:11:02.000Z,99601
2018-11-11T16:13:02.000Z,99603
2018-11-11T16:15:02.000Z,99611
2018-11-11T16:16:02.000Z,99605
2018-11-11T16:18:02.000Z,99604
2018-11-11T16:19:02.000Z,99606
2018-11-11T16:20:02.000Z,99608
2018-11-11T16:22:02.000Z,99613
2018-11-11T16:24:02.000Z,99613
2018-11-11T16:25:02.000Z,99620
2018-11-11T16:26:02.000Z,99616
2018-11-11T16:27:47.000Z,99614
2018-11-11T16:29:02.000Z,99615
2018-11-11T16:31:02.000Z,99609
2018-11-11T16:32:47.000Z,99615
2018-11-11T16:33:47.000Z,99620
2018-11-11T16:35:02.000Z,99617
2018-11-11T16:37:02.000Z,99615
2018-11-11T16:39:02.000Z,99611
2018-11-11T16:40:02.000Z,99611
2018-11-11T16:41:47.000Z,99607
2018-11-11T16:43:02.000Z,99604
2018-11-11T16:44:02.000Z,99607
2018-11-11T16:46:02.000Z,99600
2018-11-11T16:47:02.000Z,99607
2018-11-11T16:49:02.000Z,99613
2018-11-11T16:50:32.000Z,99602
2018-11-11T16:52:02.000Z,99610
2018-11-11T16:54:02.000Z,99614
2018-11-11T16:55:47.000Z,99613
2018-11-11T16:56:47.000Z,99609
2018-11-11T16:58:02.000Z,99614
2018-11-11T17:00:02.000Z,99612
2018-11-11T17:02:02.000Z,99617
2018-11-11T17:03:47.000Z,99614
2018-11-11T17:05:02.000Z,99605
2018-11-11T17:07:02.000Z,99611
2018-11-11T17:09:02.000Z,99615
2018-11-11T17:11:02.000Z,99620
2018-11-11T17:13:02.000Z,99630
2018-11-11T17:15:02.000Z,99623
2018-11-11T17:17:02.000Z,99626
2018-11-11T17:19:02.000Z,99615
2018-11-11T17:21:02.000Z,99620
2018-11-11T17:22:02.000Z,99618
2018-11-11T17:24:02.000Z,99624
2018-11-11T17:26:02.000Z,99623
2018-11-11T17:27:02.000Z,99627
2018-11-11T17:29:02.000Z,99625
2018-11-11T17:31:02.000Z,99642
2018-11-11T17:33:02.000Z,99641
2018-11-11T17:35:02.000Z,99644
2018-11-11T17:36:02.000Z,99647
2018-11-11T17:38:02.000Z,99654
2018-11-11T17:39:02.000Z,99651
2018-11-11T17:41:02.000Z,99653
2018-11-11T17:43:02.000Z,99656
2018-11-11T17:45:02.000Z,99656
2018-11-11T17:47:02.000Z,99675
2018-11-11T17:49:02.000Z,99663
2018-11-11T17:51:02.000Z,99671
2018-11-11T17:52:02.000Z,99669
2018-11-11T17:54:02.000Z,99676
2018-11-11T17:56:02.000Z,99684
2018-11-11T17:58:02.000Z,99681
2018-11-11T18:00:02.000Z,99690
2018-11-11T18:01:02.000Z,99694
2018-11-11T18:02:02.000Z,99681
2018-11-11T18:03:02.000Z,99691
2018-11-11T18:04:47.000Z,99679
2018-11-11T18:06:02.000Z,99682
2018-11-11T18:07:02.000Z,99688
2018-11-11T18:09:02.000Z,99688
2018-11-11T18:11:02.000Z,99687
2018-11-11T18:13:02.000Z,99695
2018-11-11T18:14:02.000Z,99686
2018-11-11T18:15:47.000Z,99690
2018-11-11T18:17:02.000Z,99688
2018-11-11T18:18:02.000Z,99694
2018-11-11T18:20:02.000Z,99689
2018-11-11T18:21:02.000Z,99689
2018-11-11T18:23:02.000Z,99686
2018-11-11T18:24:02.000Z,99690
2018-11-11T18:25:47.000Z,99686
2018-11-11T18:26:47.000Z,99686
2018-11-11T18:28:02.000Z,99683
2018-11-11T18:30:02.000Z,99685
2018-11-11T18:32:02.000Z,99680
2018-11-11T18:34:02.000Z,99684
2018-11-11T18:35:02.000Z,99685
2018-11-11T18:37:02.000Z,99687
2018-11-11T18:38:02.000Z,99698
2018-11-11T18:39:02.000Z,99689
2018-11-11T18:41:02.000Z,99690
2018-11-11T18:43:02.000Z,99699
2018-11-11T18:44:02.000Z,99701
2018-11-11T18:45:02.000Z,99693
2018-11-11T18:47:02.000Z,99692
2018-11-11T18:48:47.000Z,99694
2018-11-11T18:50:02.000Z,99697
2018-11-11T18:52:02.000Z,99696
2018-11-11T18:53:02.000Z,99690
2018-11-11T18:55:02.000Z,99689
2018-11-11T18:57:02.000Z,99677
2018-11-11T18:58:02.000Z,99675
2018-11-11T18:59:47.000Z,99671
2018-11-11T19:00:47.000Z,99674
2018-11-11T19:02:02.000Z,99681
2018-11-11T19:04:02.000Z,99684
2018-11-11T19:05:47.000Z,99697
2018-11-11T19:07:02.000Z,99713
2018-11-11T19:09:02.000Z,99726
2018-11-11T19:11:02.000Z,99735
2018-11-11T19:13:02.000Z,99750
2018-11-11T19:15:02.000Z,99754
2018-11-11T19:17:02.000Z,99756
2018-11-11T19:19:02.000Z,99763
2018-11-11T19:21:02.000Z,99765
2018-11-11T19:22:02.000Z,99768
2018-11-11T19:23:02.000Z,99773
2018-11-11T19:25:02.000Z,99780
2018-11-11T19:27:02.000Z,99786
2018-11-11T19:28:02.000Z,99778
2018-11-11T19:30:02.000Z,99775
2018-11-11T19:31:02.000Z,99772
2018-11-11T19:33:02.000Z,99786
2018-11-11T19:34:02.000Z,99784
2018-11-11T19:36:02.000Z,99793
2018-11-11T19:37:02.000Z,99794
2018-11-11T19:38:47.000Z,99799
2018-11-11T19:40:02.000Z,99796
2018-11-11T19:41:47.000Z,99799
2018-11-11T19:42:47.000Z,99788
2018-11-11T19:44:02.000Z,99782
2018-11-11T19:45:02.000Z,99782
2018-11-11T19:47:02.000Z,99774
2018-11-11T19:48:02.000Z,99783
2018-11-11T19:50:02.000Z,99791
2018-11-11T19:52:02.000Z,99794
2018-11-11T19:54:02.000Z,99790
2018-11-11T19:55:47.000Z,99795
2018-11-11T19:57:02.000Z,99803
2018-11-11T19:59:02.000Z,99807
2018-11-11T20:00:02.000Z,99812
2018-11-11T20:01:02.000Z,99816
2018-11-11T20:03:02.000Z,99824
2018-11-11T20:04:47.000Z,99832
2018-11-11T20:06:02.000Z,99830
2018-11-11T20:08:02.000Z,99838
2018-11-11T20:09:02.000Z,99841
2018-11-11T20:11:02.000Z,99840
2018-11-11T20:13:02.000Z,99843
2018-11-11T20:14:47.000Z,99823
2018-11-11T20:16:02.000Z,99816
2018-11-11T20:17:47.000Z,99813
2018-11-11T20:19:02.000Z,99814
2018-11-11T20:20:31.000Z,99807
2018-11-11T20:22:02.000Z,99810
2018-11-11T20:23:47.000Z,99800
2018-11-11T20:25:02.000Z,99799
2018-11-11T20:27:02.000Z,99806
2018-11-11T20:28:47.000Z,99815
2018-11-11T20:30:02.000Z,99838
2018-11-11T20:32:02.000Z,99850
2018-11-11T20:33:02.000Z,99860
2018-11-11T20:35:02.000Z,99863
2018-11-11T20:36:02.000Z,99853
2018-11-11T20:38:02.000Z,99838
2018-11-11T20:40:02.000Z,99847
2018-11-11T20:42:02.000Z,99871
2018-11-11T20:43:31.000Z,99886
2018-11-11T20:45:02.000Z,99897